CheckWX is a tool to help pilots better visualize weather data.  It is not intended as a substitute for an official pre-flight weather briefing.

11:07:32 UTC

1U7 METAR
Bear Lake County Airport
Paris, Idaho, USA
Current

33 mins ago

K1U7 181035Z AUTO 31003KT 10SM CLR 04/M00 A3004 RMK A01
Observed
Aug-18 @ 10:35 UTC
Wind
  • 310° at 3 KTS
Visibility
10 SM
Flight Rules
VFR
Cloud Levels
  • Clear skies
Temperature
C / 39°F
Dewpoint
C / 32°F
Humidity
75%
Altimeter
30.04" Hg
Pressure
1017.32 hPa
Previous

53 mins ago

K1U7 181015Z AUTO 00000KT 10SM CLR 04/00 A3004 RMK A01
Observed
Aug-18 @ 10:15 UTC
Visibility
10 SM
Flight Rules
VFR
Cloud Levels
  • Clear skies
Temperature
C / 39°F
Dewpoint
C / 32°F
Humidity
75%
Altimeter
30.04" Hg
Pressure
1017.32 hPa
Previous

1 hour ago

K1U7 180955Z AUTO 00000KT 10SM CLR 04/01 A3004 RMK A01
Observed
Aug-18 @ 09:55 UTC
Visibility
10 SM
Flight Rules
VFR
Cloud Levels
  • Clear skies
Temperature
C / 39°F
Dewpoint
C / 34°F
Humidity
81%
Altimeter
30.04" Hg
Pressure
1017.32 hPa